»·PEaware :: N65415 KSNA-KSAN

N65415 :: KSNA-KSAN

FLIGHT INFORMATION

Flight Status: Arrived
Operator: Privately registered:
United States
More flights under this callsign
Pilot: Stephane C. (508)
Aircraft: CESSNA 172 SKYHAWK
(C172)
More flights by this aircraft type
Origin: KSNA John Wayne-Orange Co
United States
Destination: KSAN San Diego Intl-Lindbergh
United States
More flights between these airports :: More routes between these airports
Route: V23 MZB
File this flight plan on PilotEdge
Remarks:
Altitude:
(Current/Filed)
5,000ft
Speed:
(Current/Filed)
110kts
Departed: 06-Jan-18 08:27 AM
Arrived: 06-Jan-18 09:24 AM
Distance/Time
Traveled:
66nm/0:57
Distance/Time
To Go:
Arrived

Flight Plot

Page will automatically refresh every two minutes.


Map Options




Map Legend


Flown Route
Filed Route
Departure Airport
Arrival Airport
Navaid (VOR, NDB)
Fix

Horizontal Profiles

Position Reports

Time Latitude Longitude Heading Altitude Ground
Speed
06-Jan-18 08:06 33.672772 -117.872861 210 49ft 0kts
06-Jan-18 08:07 33.672772 -117.872861 210 49ft 0kts
06-Jan-18 08:08 33.672772 -117.872861 210 49ft 0kts
06-Jan-18 08:09 33.672772 -117.872861 210 49ft 0kts
06-Jan-18 08:10 33.672772 -117.872861 210 49ft 0kts
06-Jan-18 08:11 33.672772 -117.872861 210 49ft 0kts
06-Jan-18 08:12 33.672772 -117.872861 210 49ft 0kts
06-Jan-18 08:13 33.672772 -117.872861 210 49ft 0kts
06-Jan-18 08:14 33.672772 -117.872861 210 49ft 0kts
06-Jan-18 08:15 33.672772 -117.872861 210 49ft 0kts
06-Jan-18 08:16 33.672772 -117.872861 210 49ft 0kts
06-Jan-18 08:17 33.672772 -117.872861 210 49ft 0kts
06-Jan-18 08:18 33.672772 -117.872861 210 49ft 0kts
06-Jan-18 08:19 33.672772 -117.872861 210 49ft 0kts
06-Jan-18 08:20 33.672772 -117.872861 210 49ft 0kts
06-Jan-18 08:21 33.672772 -117.872861 210 49ft 0kts
06-Jan-18 08:22 33.672772 -117.872861 210 49ft 0kts
06-Jan-18 08:23 33.672772 -117.872861 210 49ft 0kts
06-Jan-18 08:24 33.672772 -117.872861 210 49ft 0kts
06-Jan-18 08:25 33.672618 -117.872712 119 49ft 4kts
06-Jan-18 08:26 33.674557 -117.871045 27 49ft 13kts
06-Jan-18 08:27 33.678367 -117.868629 27 49ft 15kts
06-Jan-18 08:28 33.681219 -117.866449 114 49ft 5kts
06-Jan-18 08:29 33.681197 -117.866398 118 49ft 0kts
06-Jan-18 08:30 33.681197 -117.866398 118 49ft 0kts
06-Jan-18 08:31 33.681197 -117.866398 118 49ft 0kts
06-Jan-18 08:32 33.680610 -117.865714 207 49ft 0kts
06-Jan-18 08:33 33.669130 -117.872976 206 340ft 76kts
06-Jan-18 08:34 33.646250 -117.878603 186 1070ft 86kts
06-Jan-18 08:35 33.622324 -117.881428 184 1805ft 87kts
06-Jan-18 08:36 33.602222 -117.883587 185 2404ft 87kts
06-Jan-18 08:37 33.576081 -117.878473 133 3206ft 89kts
06-Jan-18 08:38 33.559259 -117.856196 132 3874ft 90kts
06-Jan-18 08:39 33.544270 -117.837939 131 4405ft 93kts
06-Jan-18 08:40 33.526011 -117.814701 129 4971ft 102kts
06-Jan-18 08:41 33.504068 -117.784480 130 4967ft 127kts
06-Jan-18 08:42 33.481252 -117.752181 129 5008ft 127kts
06-Jan-18 08:43 33.459804 -117.718523 130 4989ft 130kts
06-Jan-18 08:44 33.435299 -117.686577 132 5030ft 130kts
06-Jan-18 08:45 33.410103 -117.654539 132 4996ft 132kts
06-Jan-18 08:46 33.384750 -117.622725 134 5005ft 132kts
06-Jan-18 08:47 33.361439 -117.588917 124 5000ft 134kts
06-Jan-18 08:48 33.340592 -117.552555 128 4962ft 131kts
06-Jan-18 08:49 33.317208 -117.521445 133 4989ft 131kts
06-Jan-18 08:50 33.291685 -117.489887 135 4995ft 133kts
06-Jan-18 08:51 33.266379 -117.457511 131 4936ft 134kts
06-Jan-18 08:52 33.242433 -117.424275 131 4945ft 132kts
06-Jan-18 08:53 33.211435 -117.402918 159 5004ft 128kts
06-Jan-18 08:54 33.176419 -117.391751 162 5000ft 129kts
06-Jan-18 08:55 33.142715 -117.376138 160 5015ft 130kts
06-Jan-18 08:56 33.108337 -117.361346 159 4962ft 131kts
06-Jan-18 08:57 33.075097 -117.346285 161 4976ft 129kts
06-Jan-18 08:58 33.041120 -117.332582 164 4932ft 128kts
06-Jan-18 08:59 33.008027 -117.319651 160 4986ft 125kts
06-Jan-18 09:00 32.974855 -117.305180 161 4961ft 128kts
06-Jan-18 09:01 32.941817 -117.290433 158 4936ft 127kts
06-Jan-18 09:02 32.908714 -117.276021 161 4958ft 127kts
06-Jan-18 09:03 32.875552 -117.262142 161 4942ft 129kts
06-Jan-18 09:04 32.841359 -117.249091 164 4921ft 130kts
06-Jan-18 09:05 32.807002 -117.235946 161 4956ft 130kts
06-Jan-18 09:06 32.773607 -117.220414 158 4988ft 130kts
06-Jan-18 09:07 32.741041 -117.202696 126 4993ft 129kts
06-Jan-18 09:08 32.740811 -117.163040 80 5012ft 122kts
06-Jan-18 09:09 32.744620 -117.123008 78 5004ft 121kts
06-Jan-18 09:10 32.748367 -117.083004 80 4988ft 122kts
06-Jan-18 09:11 32.752096 -117.042814 80 4974ft 122kts
06-Jan-18 09:12 32.756634 -117.003037 80 4968ft 123kts
06-Jan-18 09:13 32.758017 -116.962883 101 4978ft 124kts
06-Jan-18 09:14 32.750818 -116.922752 101 4955ft 124kts
06-Jan-18 09:15 32.743113 -116.882863 100 4937ft 124kts
06-Jan-18 09:16 32.736175 -116.842840 99 4926ft 124kts
06-Jan-18 09:17 32.719643 -116.810371 164 4980ft 123kts
06-Jan-18 09:18 32.686934 -116.820124 200 5015ft 123kts
06-Jan-18 09:19 32.665195 -116.846091 268 4986ft 119kts
06-Jan-18 09:20 32.664383 -116.885563 269 4990ft 120kts
06-Jan-18 09:21 32.670050 -116.925738 283 4652ft 125kts
06-Jan-18 09:22 32.679217 -116.965471 290 4028ft 123kts
06-Jan-18 09:23 32.688607 -117.002739 284 3253ft 114kts
06-Jan-18 09:24 32.696083 -117.034687 287 2779ft 94kts
06-Jan-18 09:25 32.703296 -117.065008 289 2329ft 96kts
06-Jan-18 09:26 32.710878 -117.095868 289 1890ft 100kts
06-Jan-18 09:27 32.718795 -117.127773 289 1341ft 102kts
06-Jan-18 09:28 32.726220 -117.159279 288 566ft 96kts
06-Jan-18 09:29 32.731738 -117.182183 292 23ft 57kts
06-Jan-18 09:30 32.733920 -117.188096 16 17ft 0kts
06-Jan-18 09:31 32.733572 -117.184967 105 17ft 18kts
06-Jan-18 09:32 32.732016 -117.178561 106 22ft 19kts
06-Jan-18 09:33 32.732223 -117.177269 195 27ft 0kts
06-Jan-18 09:34 32.732223 -117.177269 195 27ft 0kts
06-Jan-18 09:35 32.732223 -117.177269 195 27ft 0kts
06-Jan-18 09:36 32.732223 -117.177269 195 27ft 0kts
06-Jan-18 09:37 32.732223 -117.177269 195 27ft 0kts
06-Jan-18 09:38 32.732223 -117.177269 195 27ft 0kts
06-Jan-18 09:39 32.732223 -117.177269 195 27ft 0kts
06-Jan-18 09:40 32.732223 -117.177269 195 27ft 0kts
06-Jan-18 09:41 32.732223 -117.177269 195 27ft 0kts
06-Jan-18 09:42 32.732223 -117.177269 195 27ft 0kts
06-Jan-18 09:43 32.732223 -117.177269 195 27ft 0kts
06-Jan-18 09:44 32.732223 -117.177269 195 27ft 0kts

Navigation Log

Ident Type
1. KSNA Airport
2. MZB Navaid
3. KSAN Airport